sensor_id;sensor_type;location;lat;lon;timestamp;temperature;humidity
23289;DHT22;11813;50.834;4.280;2024-01-30T00:02:15;11.40;99.90
23289;DHT22;11813;50.834;4.280;2024-01-30T00:04:41;11.40;99.90
23289;DHT22;11813;50.834;4.280;2024-01-30T00:07:07;11.40;99.90
23289;DHT22;11813;50.834;4.280;2024-01-30T00:09:33;11.50;99.90
23289;DHT22;11813;50.834;4.280;2024-01-30T00:11:58;11.50;99.90
23289;DHT22;11813;50.834;4.280;2024-01-30T00:14:24;11.50;99.90
23289;DHT22;11813;50.834;4.280;2024-01-30T00:16:51;11.60;99.90
23289;DHT22;11813;50.834;4.280;2024-01-30T00:19:17;11.70;99.90
23289;DHT22;11813;50.834;4.280;2024-01-30T00:21:42;11.70;99.90
23289;DHT22;11813;50.834;4.280;2024-01-30T00:24:08;11.60;99.90
23289;DHT22;11813;50.834;4.280;2024-01-30T00:26:34;11.80;99.90
23289;DHT22;11813;50.834;4.280;2024-01-30T00:29:00;11.80;99.90
23289;DHT22;11813;50.834;4.280;2024-01-30T00:31:26;11.90;99.90
23289;DHT22;11813;50.834;4.280;2024-01-30T00:33:51;11.80;99.90
23289;DHT22;11813;50.834;4.280;2024-01-30T00:36:17;11.90;99.90
23289;DHT22;11813;50.834;4.280;2024-01-30T00:38:42;11.90;99.90
23289;DHT22;11813;50.834;4.280;2024-01-30T00:41:08;11.80;99.90
23289;DHT22;11813;50.834;4.280;2024-01-30T00:43:35;11.80;99.90
23289;DHT22;11813;50.834;4.280;2024-01-30T00:46:01;11.80;99.90
23289;DHT22;11813;50.834;4.280;2024-01-30T00:48:26;11.90;99.90
23289;DHT22;11813;50.834;4.280;2024-01-30T00:50:52;11.90;99.90
23289;DHT22;11813;50.834;4.280;2024-01-30T00:53:18;12.00;99.90
23289;DHT22;11813;50.834;4.280;2024-01-30T00:55:43;11.90;99.90
23289;DHT22;11813;50.834;4.280;2024-01-30T00:58:09;11.90;99.90
23289;DHT22;11813;50.834;4.280;2024-01-30T01:00:34;12.00;99.90
23289;DHT22;11813;50.834;4.280;2024-01-30T01:03:00;12.00;99.90
23289;DHT22;11813;50.834;4.280;2024-01-30T01:05:26;12.10;99.90
23289;DHT22;11813;50.834;4.280;2024-01-30T01:07:52;12.00;99.90
23289;DHT22;11813;50.834;4.280;2024-01-30T01:10:18;12.10;99.90
23289;DHT22;11813;50.834;4.280;2024-01-30T01:12:44;12.10;99.90
23289;DHT22;11813;50.834;4.280;2024-01-30T01:15:10;12.00;99.90
23289;DHT22;11813;50.834;4.280;2024-01-30T01:17:39;12.00;99.90
23289;DHT22;11813;50.834;4.280;2024-01-30T01:20:06;12.00;99.90
23289;DHT22;11813;50.834;4.280;2024-01-30T01:22:32;12.10;99.90
23289;DHT22;11813;50.834;4.280;2024-01-30T01:25:01;12.20;99.90
23289;DHT22;11813;50.834;4.280;2024-01-30T01:27:27;12.20;99.90
23289;DHT22;11813;50.834;4.280;2024-01-30T01:29:53;12.10;99.90
23289;DHT22;11813;50.834;4.280;2024-01-30T01:32:18;12.20;99.90
23289;DHT22;11813;50.834;4.280;2024-01-30T01:34:44;12.20;99.90
23289;DHT22;11813;50.834;4.280;2024-01-30T01:37:10;12.20;99.90
23289;DHT22;11813;50.834;4.280;2024-01-30T01:39:36;12.20;99.90
23289;DHT22;11813;50.834;4.280;2024-01-30T01:42:01;12.20;99.90
23289;DHT22;11813;50.834;4.280;2024-01-30T01:44:27;12.30;99.90
23289;DHT22;11813;50.834;4.280;2024-01-30T01:46:55;12.30;99.90
23289;DHT22;11813;50.834;4.280;2024-01-30T01:49:24;12.30;99.90
23289;DHT22;11813;50.834;4.280;2024-01-30T01:51:51;12.30;99.90
23289;DHT22;11813;50.834;4.280;2024-01-30T01:54:17;12.10;99.90
23289;DHT22;11813;50.834;4.280;2024-01-30T01:56:43;12.20;99.90
23289;DHT22;11813;50.834;4.280;2024-01-30T01:59:09;12.20;99.90
23289;DHT22;11813;50.834;4.280;2024-01-30T02:01:36;12.20;99.90
23289;DHT22;11813;50.834;4.280;2024-01-30T02:04:03;12.30;99.90
23289;DHT22;11813;50.834;4.280;2024-01-30T02:06:28;12.20;99.90
23289;DHT22;11813;50.834;4.280;2024-01-30T02:08:54;12.20;99.90
23289;DHT22;11813;50.834;4.280;2024-01-30T02:11:20;12.30;99.90
23289;DHT22;11813;50.834;4.280;2024-01-30T02:13:46;12.30;99.90
23289;DHT22;11813;50.834;4.280;2024-01-30T02:16:12;12.30;99.90
23289;DHT22;11813;50.834;4.280;2024-01-30T02:18:38;12.30;99.90
23289;DHT22;11813;50.834;4.280;2024-01-30T02:21:08;12.30;99.90
23289;DHT22;11813;50.834;4.280;2024-01-30T02:23:34;12.30;99.90
23289;DHT22;11813;50.834;4.280;2024-01-30T02:26:00;12.20;99.90
23289;DHT22;11813;50.834;4.280;2024-01-30T02:28:26;12.20;99.90
23289;DHT22;11813;50.834;4.280;2024-01-30T02:30:52;12.20;99.90
23289;DHT22;11813;50.834;4.280;2024-01-30T02:33:18;12.30;99.90
23289;DHT22;11813;50.834;4.280;2024-01-30T02:35:44;12.30;99.90
23289;DHT22;11813;50.834;4.280;2024-01-30T02:38:10;12.20;99.90
23289;DHT22;11813;50.834;4.280;2024-01-30T02:40:35;12.30;99.90
23289;DHT22;11813;50.834;4.280;2024-01-30T02:43:02;12.30;99.90
23289;DHT22;11813;50.834;4.280;2024-01-30T02:45:27;12.40;99.90
23289;DHT22;11813;50.834;4.280;2024-01-30T02:47:53;12.30;99.90
23289;DHT22;11813;50.834;4.280;2024-01-30T02:50:19;12.40;99.90
23289;DHT22;11813;50.834;4.280;2024-01-30T02:52:44;12.30;99.90
23289;DHT22;11813;50.834;4.280;2024-01-30T02:55:10;12.30;99.90
23289;DHT22;11813;50.834;4.280;2024-01-30T02:57:36;12.20;99.90
23289;DHT22;11813;50.834;4.280;2024-01-30T03:00:02;12.30;99.90
23289;DHT22;11813;50.834;4.280;2024-01-30T03:02:29;12.30;99.90
23289;DHT22;11813;50.834;4.280;2024-01-30T03:04:55;12.30;99.90
23289;DHT22;11813;50.834;4.280;2024-01-30T03:07:20;12.30;99.90
23289;DHT22;11813;50.834;4.280;2024-01-30T03:09:46;12.30;99.90
23289;DHT22;11813;50.834;4.280;2024-01-30T03:12:11;12.20;99.90
23289;DHT22;11813;50.834;4.280;2024-01-30T03:14:37;12.30;99.90
23289;DHT22;11813;50.834;4.280;2024-01-30T03:17:03;12.30;99.90
23289;DHT22;11813;50.834;4.280;2024-01-30T03:19:28;12.30;99.90
23289;DHT22;11813;50.834;4.280;2024-01-30T03:21:54;12.30;99.90
23289;DHT22;11813;50.834;4.280;2024-01-30T03:24:20;12.40;99.90
23289;DHT22;11813;50.834;4.280;2024-01-30T03:26:46;12.30;99.90
23289;DHT22;11813;50.834;4.280;2024-01-30T03:29:11;12.40;99.90
23289;DHT22;11813;50.834;4.280;2024-01-30T03:31:37;12.50;99.90
23289;DHT22;11813;50.834;4.280;2024-01-30T03:34:02;12.30;99.90
23289;DHT22;11813;50.834;4.280;2024-01-30T03:36:28;12.20;99.90
23289;DHT22;11813;50.834;4.280;2024-01-30T03:38:54;12.30;99.90
23289;DHT22;11813;50.834;4.280;2024-01-30T03:41:19;12.30;99.90
23289;DHT22;11813;50.834;4.280;2024-01-30T03:43:46;12.40;99.90
23289;DHT22;11813;50.834;4.280;2024-01-30T03:46:12;12.30;99.90
23289;DHT22;11813;50.834;4.280;2024-01-30T03:48:38;12.40;99.90
23289;DHT22;11813;50.834;4.280;2024-01-30T03:51:04;12.40;99.90
23289;DHT22;11813;50.834;4.280;2024-01-30T03:53:30;12.30;99.90
23289;DHT22;11813;50.834;4.280;2024-01-30T03:55:56;12.30;99.90
23289;DHT22;11813;50.834;4.280;2024-01-30T03:58:22;12.20;99.90
23289;DHT22;11813;50.834;4.280;2024-01-30T04:00:47;12.30;99.90
23289;DHT22;11813;50.834;4.280;2024-01-30T04:03:14;12.30;99.90
23289;DHT22;11813;50.834;4.280;2024-01-30T04:05:41;12.30;99.90
23289;DHT22;11813;50.834;4.280;2024-01-30T04:08:07;12.20;99.90
23289;DHT22;11813;50.834;4.280;2024-01-30T04:10:33;12.20;99.90
23289;DHT22;11813;50.834;4.280;2024-01-30T04:12:59;12.20;99.90
23289;DHT22;11813;50.834;4.280;2024-01-30T04:15:25;12.20;99.90
23289;DHT22;11813;50.834;4.280;2024-01-30T04:17:51;12.20;99.90
23289;DHT22;11813;50.834;4.280;2024-01-30T04:20:17;12.30;99.90
23289;DHT22;11813;50.834;4.280;2024-01-30T04:22:46;12.30;99.90
23289;DHT22;11813;50.834;4.280;2024-01-30T04:25:13;12.20;99.90
23289;DHT22;11813;50.834;4.280;2024-01-30T04:27:39;12.10;99.90
23289;DHT22;11813;50.834;4.280;2024-01-30T04:30:05;12.10;99.90
23289;DHT22;11813;50.834;4.280;2024-01-30T04:32:31;12.10;99.90
23289;DHT22;11813;50.834;4.280;2024-01-30T04:34:57;12.00;99.90
23289;DHT22;11813;50.834;4.280;2024-01-30T04:37:23;12.10;99.90
23289;DHT22;11813;50.834;4.280;2024-01-30T04:39:49;12.10;99.90
23289;DHT22;11813;50.834;4.280;2024-01-30T04:42:15;12.00;99.90
23289;DHT22;11813;50.834;4.280;2024-01-30T04:44:40;12.00;99.90
23289;DHT22;11813;50.834;4.280;2024-01-30T04:47:06;12.10;99.90
23289;DHT22;11813;50.834;4.280;2024-01-30T04:49:34;12.10;99.90
23289;DHT22;11813;50.834;4.280;2024-01-30T04:52:00;12.10;99.90
23289;DHT22;11813;50.834;4.280;2024-01-30T04:54:25;12.10;99.90
23289;DHT22;11813;50.834;4.280;2024-01-30T04:56:51;12.10;99.90
23289;DHT22;11813;50.834;4.280;2024-01-30T04:59:16;12.10;99.90
23289;DHT22;11813;50.834;4.280;2024-01-30T05:01:42;12.10;99.90
23289;DHT22;11813;50.834;4.280;2024-01-30T05:04:08;12.10;99.90
23289;DHT22;11813;50.834;4.280;2024-01-30T05:06:34;12.00;99.90
23289;DHT22;11813;50.834;4.280;2024-01-30T05:08:59;12.00;99.90
23289;DHT22;11813;50.834;4.280;2024-01-30T05:11:25;12.00;99.90
23289;DHT22;11813;50.834;4.280;2024-01-30T05:13:50;12.10;99.90
23289;DHT22;11813;50.834;4.280;2024-01-30T05:16:16;12.10;99.90
23289;DHT22;11813;50.834;4.280;2024-01-30T05:18:42;12.20;99.90
23289;DHT22;11813;50.834;4.280;2024-01-30T05:21:07;12.10;99.90
23289;DHT22;11813;50.834;4.280;2024-01-30T05:23:33;12.20;99.90
23289;DHT22;11813;50.834;4.280;2024-01-30T05:25:59;12.20;99.90
23289;DHT22;11813;50.834;4.280;2024-01-30T05:28:26;12.20;99.90
23289;DHT22;11813;50.834;4.280;2024-01-30T05:30:52;12.20;99.90
23289;DHT22;11813;50.834;4.280;2024-01-30T05:33:17;12.20;99.90
23289;DHT22;11813;50.834;4.280;2024-01-30T05:35:43;12.20;99.90
23289;DHT22;11813;50.834;4.280;2024-01-30T05:38:08;12.20;99.90
23289;DHT22;11813;50.834;4.280;2024-01-30T05:40:34;12.10;99.90
23289;DHT22;11813;50.834;4.280;2024-01-30T05:43:00;12.10;99.90
23289;DHT22;11813;50.834;4.280;2024-01-30T05:45:26;12.20;99.90
23289;DHT22;11813;50.834;4.280;2024-01-30T05:47:52;12.20;99.90
23289;DHT22;11813;50.834;4.280;2024-01-30T05:50:19;12.20;99.90
23289;DHT22;11813;50.834;4.280;2024-01-30T05:52:45;12.20;99.90
23289;DHT22;11813;50.834;4.280;2024-01-30T05:55:11;12.20;99.90
23289;DHT22;11813;50.834;4.280;2024-01-30T05:57:37;12.20;99.90
23289;DHT22;11813;50.834;4.280;2024-01-30T06:00:04;12.10;99.90
23289;DHT22;11813;50.834;4.280;2024-01-30T06:02:30;12.10;99.90
23289;DHT22;11813;50.834;4.280;2024-01-30T06:04:56;12.10;99.90
23289;DHT22;11813;50.834;4.280;2024-01-30T06:07:21;12.10;99.90
23289;DHT22;11813;50.834;4.280;2024-01-30T06:09:47;12.10;99.90
23289;DHT22;11813;50.834;4.280;2024-01-30T06:12:13;12.10;99.90
23289;DHT22;11813;50.834;4.280;2024-01-30T06:14:38;12.10;99.90
23289;DHT22;11813;50.834;4.280;2024-01-30T06:17:04;12.00;99.90
23289;DHT22;11813;50.834;4.280;2024-01-30T06:19:30;12.10;99.90
23289;DHT22;11813;50.834;4.280;2024-01-30T06:21:59;12.10;99.90
23289;DHT22;11813;50.834;4.280;2024-01-30T06:24:24;12.10;99.90
23289;DHT22;11813;50.834;4.280;2024-01-30T06:26:50;12.10;99.90
23289;DHT22;11813;50.834;4.280;2024-01-30T06:29:16;12.10;99.90
23289;DHT22;11813;50.834;4.280;2024-01-30T06:31:42;12.10;99.90
23289;DHT22;11813;50.834;4.280;2024-01-30T06:34:11;12.10;99.90
23289;DHT22;11813;50.834;4.280;2024-01-30T06:36:37;12.10;99.90
23289;DHT22;11813;50.834;4.280;2024-01-30T06:39:03;12.10;99.90
23289;DHT22;11813;50.834;4.280;2024-01-30T06:41:29;12.10;99.90
23289;DHT22;11813;50.834;4.280;2024-01-30T06:43:56;12.00;99.90
23289;DHT22;11813;50.834;4.280;2024-01-30T06:46:21;12.00;99.90
23289;DHT22;11813;50.834;4.280;2024-01-30T06:48:47;12.00;99.90
23289;DHT22;11813;50.834;4.280;2024-01-30T06:51:13;11.90;99.90
23289;DHT22;11813;50.834;4.280;2024-01-30T06:53:38;12.00;99.90
23289;DHT22;11813;50.834;4.280;2024-01-30T06:56:04;12.00;99.90
23289;DHT22;11813;50.834;4.280;2024-01-30T06:58:30;12.00;99.90
23289;DHT22;11813;50.834;4.280;2024-01-30T07:00:56;12.00;99.90
23289;DHT22;11813;50.834;4.280;2024-01-30T07:03:22;11.90;99.90
23289;DHT22;11813;50.834;4.280;2024-01-30T07:05:47;11.80;99.90
23289;DHT22;11813;50.834;4.280;2024-01-30T07:08:14;11.90;99.90
23289;DHT22;11813;50.834;4.280;2024-01-30T07:10:43;11.90;99.90
23289;DHT22;11813;50.834;4.280;2024-01-30T07:13:08;11.90;99.90
23289;DHT22;11813;50.834;4.280;2024-01-30T07:15:35;11.90;99.90
23289;DHT22;11813;50.834;4.280;2024-01-30T07:18:02;11.80;99.90
23289;DHT22;11813;50.834;4.280;2024-01-30T07:20:27;11.80;99.90
23289;DHT22;11813;50.834;4.280;2024-01-30T07:22:55;11.90;99.90
23289;DHT22;11813;50.834;4.280;2024-01-30T07:25:21;11.80;99.90
23289;DHT22;11813;50.834;4.280;2024-01-30T07:27:47;11.80;99.90
23289;DHT22;11813;50.834;4.280;2024-01-30T07:30:12;11.90;99.90
23289;DHT22;11813;50.834;4.280;2024-01-30T07:32:38;11.80;99.90
23289;DHT22;11813;50.834;4.280;2024-01-30T07:35:04;11.90;99.90
23289;DHT22;11813;50.834;4.280;2024-01-30T07:37:29;11.80;99.90
23289;DHT22;11813;50.834;4.280;2024-01-30T07:39:55;11.90;99.90
23289;DHT22;11813;50.834;4.280;2024-01-30T07:42:21;11.80;99.90
23289;DHT22;11813;50.834;4.280;2024-01-30T07:44:46;11.80;99.90
23289;DHT22;11813;50.834;4.280;2024-01-30T07:47:12;11.90;99.90
23289;DHT22;11813;50.834;4.280;2024-01-30T07:49:40;11.90;99.90
23289;DHT22;11813;50.834;4.280;2024-01-30T07:52:06;11.70;99.90
23289;DHT22;11813;50.834;4.280;2024-01-30T07:54:32;11.80;99.90
23289;DHT22;11813;50.834;4.280;2024-01-30T07:57:00;11.80;99.90
23289;DHT22;11813;50.834;4.280;2024-01-30T07:59:25;11.70;99.90
23289;DHT22;11813;50.834;4.280;2024-01-30T08:01:51;11.80;99.90
23289;DHT22;11813;50.834;4.280;2024-01-30T08:04:17;11.70;99.90
23289;DHT22;11813;50.834;4.280;2024-01-30T08:06:43;11.70;99.90
23289;DHT22;11813;50.834;4.280;2024-01-30T08:09:08;11.80;99.90
23289;DHT22;11813;50.834;4.280;2024-01-30T08:11:34;11.70;99.90
23289;DHT22;11813;50.834;4.280;2024-01-30T08:13:59;11.80;99.90
23289;DHT22;11813;50.834;4.280;2024-01-30T08:16:25;11.80;99.90
23289;DHT22;11813;50.834;4.280;2024-01-30T08:18:51;11.80;99.90
23289;DHT22;11813;50.834;4.280;2024-01-30T08:21:18;11.90;99.90
23289;DHT22;11813;50.834;4.280;2024-01-30T08:23:44;12.00;99.90
23289;DHT22;11813;50.834;4.280;2024-01-30T08:26:09;11.90;99.90
23289;DHT22;11813;50.834;4.280;2024-01-30T08:28:35;12.00;99.90
23289;DHT22;11813;50.834;4.280;2024-01-30T08:31:01;12.00;99.90
23289;DHT22;11813;50.834;4.280;2024-01-30T08:33:26;12.10;99.90
23289;DHT22;11813;50.834;4.280;2024-01-30T08:35:52;12.10;99.90
23289;DHT22;11813;50.834;4.280;2024-01-30T08:38:18;12.10;99.90
23289;DHT22;11813;50.834;4.280;2024-01-30T08:40:43;12.10;99.90
23289;DHT22;11813;50.834;4.280;2024-01-30T08:43:09;12.10;99.90
23289;DHT22;11813;50.834;4.280;2024-01-30T08:45:35;12.20;99.90
23289;DHT22;11813;50.834;4.280;2024-01-30T08:48:01;12.10;99.90
23289;DHT22;11813;50.834;4.280;2024-01-30T08:50:26;12.20;99.90
23289;DHT22;11813;50.834;4.280;2024-01-30T08:52:52;12.00;99.90
23289;DHT22;11813;50.834;4.280;2024-01-30T08:55:18;12.00;99.90
23289;DHT22;11813;50.834;4.280;2024-01-30T08:57:43;12.00;99.90
23289;DHT22;11813;50.834;4.280;2024-01-30T09:00:09;12.00;99.90
23289;DHT22;11813;50.834;4.280;2024-01-30T09:02:35;12.00;99.90
23289;DHT22;11813;50.834;4.280;2024-01-30T09:05:01;12.00;99.90
23289;DHT22;11813;50.834;4.280;2024-01-30T09:07:27;12.10;99.90
23289;DHT22;11813;50.834;4.280;2024-01-30T09:09:53;12.10;99.90
23289;DHT22;11813;50.834;4.280;2024-01-30T09:12:18;12.10;99.90
23289;DHT22;11813;50.834;4.280;2024-01-30T09:14:44;12.10;99.90
23289;DHT22;11813;50.834;4.280;2024-01-30T09:17:09;12.10;99.90
23289;DHT22;11813;50.834;4.280;2024-01-30T09:19:35;12.10;99.90
23289;DHT22;11813;50.834;4.280;2024-01-30T09:22:01;12.10;99.90
23289;DHT22;11813;50.834;4.280;2024-01-30T09:24:27;12.10;99.90
23289;DHT22;11813;50.834;4.280;2024-01-30T09:26:53;12.00;99.90
23289;DHT22;11813;50.834;4.280;2024-01-30T09:29:18;12.10;99.90
23289;DHT22;11813;50.834;4.280;2024-01-30T09:31:45;12.00;99.90
23289;DHT22;11813;50.834;4.280;2024-01-30T09:34:10;12.00;99.90
23289;DHT22;11813;50.834;4.280;2024-01-30T09:36:36;12.00;99.90
23289;DHT22;11813;50.834;4.280;2024-01-30T09:39:02;11.90;99.90
23289;DHT22;11813;50.834;4.280;2024-01-30T09:41:30;12.00;99.90
23289;DHT22;11813;50.834;4.280;2024-01-30T09:43:57;12.00;99.90
23289;DHT22;11813;50.834;4.280;2024-01-30T09:46:26;12.10;99.90
23289;DHT22;11813;50.834;4.280;2024-01-30T09:48:55;12.00;99.90
23289;DHT22;11813;50.834;4.280;2024-01-30T09:51:23;11.90;99.90
23289;DHT22;11813;50.834;4.280;2024-01-30T09:53:49;11.90;99.90
23289;DHT22;11813;50.834;4.280;2024-01-30T09:56:15;11.90;99.90
23289;DHT22;11813;50.834;4.280;2024-01-30T09:58:42;11.90;99.90
23289;DHT22;11813;50.834;4.280;2024-01-30T10:01:08;11.80;99.90
23289;DHT22;11813;50.834;4.280;2024-01-30T10:03:33;11.80;99.90
23289;DHT22;11813;50.834;4.280;2024-01-30T10:05:59;11.80;99.90
23289;DHT22;11813;50.834;4.280;2024-01-30T10:08:26;11.90;99.90
23289;DHT22;11813;50.834;4.280;2024-01-30T10:10:52;11.90;99.90
23289;DHT22;11813;50.834;4.280;2024-01-30T10:13:18;11.90;99.90
23289;DHT22;11813;50.834;4.280;2024-01-30T10:15:44;11.80;99.90
23289;DHT22;11813;50.834;4.280;2024-01-30T10:18:10;11.80;99.90
23289;DHT22;11813;50.834;4.280;2024-01-30T10:20:36;11.90;99.90
23289;DHT22;11813;50.834;4.280;2024-01-30T10:23:02;11.80;99.90
23289;DHT22;11813;50.834;4.280;2024-01-30T10:25:28;11.90;99.90
23289;DHT22;11813;50.834;4.280;2024-01-30T10:27:54;11.90;99.90
23289;DHT22;11813;50.834;4.280;2024-01-30T10:30:23;11.80;99.90
23289;DHT22;11813;50.834;4.280;2024-01-30T10:32:49;11.80;99.90
23289;DHT22;11813;50.834;4.280;2024-01-30T10:35:16;11.70;99.90
23289;DHT22;11813;50.834;4.280;2024-01-30T10:37:47;11.60;99.90
23289;DHT22;11813;50.834;4.280;2024-01-30T10:40:14;11.60;99.90
23289;DHT22;11813;50.834;4.280;2024-01-30T10:42:43;11.70;99.90
23289;DHT22;11813;50.834;4.280;2024-01-30T10:45:11;11.80;99.90
23289;DHT22;11813;50.834;4.280;2024-01-30T10:47:40;11.80;99.90
23289;DHT22;11813;50.834;4.280;2024-01-30T10:50:08;11.90;99.90
23289;DHT22;11813;50.834;4.280;2024-01-30T10:52:34;11.90;99.90
23289;DHT22;11813;50.834;4.280;2024-01-30T10:55:00;11.90;99.90
23289;DHT22;11813;50.834;4.280;2024-01-30T10:57:26;11.70;99.90
23289;DHT22;11813;50.834;4.280;2024-01-30T10:59:55;11.70;99.90
23289;DHT22;11813;50.834;4.280;2024-01-30T11:02:22;11.60;99.90
23289;DHT22;11813;50.834;4.280;2024-01-30T11:04:49;11.40;99.90
23289;DHT22;11813;50.834;4.280;2024-01-30T11:07:16;11.50;99.90
23289;DHT22;11813;50.834;4.280;2024-01-30T11:12:24;11.40;99.90
23289;DHT22;11813;50.834;4.280;2024-01-30T11:15:02;11.40;99.90
23289;DHT22;11813;50.834;4.280;2024-01-30T11:17:53;11.40;99.90
23289;DHT22;11813;50.834;4.280;2024-01-30T11:20:27;11.30;99.90
23289;DHT22;11813;50.834;4.280;2024-01-30T11:22:56;11.30;99.90
23289;DHT22;11813;50.834;4.280;2024-01-30T11:25:24;11.20;99.90
23289;DHT22;11813;50.834;4.280;2024-01-30T11:27:51;11.20;99.90
23289;DHT22;11813;50.834;4.280;2024-01-30T11:30:27;11.20;99.90
23289;DHT22;11813;50.834;4.280;2024-01-30T11:33:08;11.10;99.90
23289;DHT22;11813;50.834;4.280;2024-01-30T11:38:00;11.10;99.90
23289;DHT22;11813;50.834;4.280;2024-01-30T11:40:28;11.20;99.90
23289;DHT22;11813;50.834;4.280;2024-01-30T11:42:58;11.30;99.90
23289;DHT22;11813;50.834;4.280;2024-01-30T11:45:24;11.50;99.90
23289;DHT22;11813;50.834;4.280;2024-01-30T11:47:50;11.60;99.90
23289;DHT22;11813;50.834;4.280;2024-01-30T11:50:16;11.60;99.90
23289;DHT22;11813;50.834;4.280;2024-01-30T11:52:42;11.90;99.90
23289;DHT22;11813;50.834;4.280;2024-01-30T11:55:09;12.00;99.90
23289;DHT22;11813;50.834;4.280;2024-01-30T11:57:35;12.00;99.90
23289;DHT22;11813;50.834;4.280;2024-01-30T12:00:03;11.70;99.90
23289;DHT22;11813;50.834;4.280;2024-01-30T12:02:38;11.60;99.90
23289;DHT22;11813;50.834;4.280;2024-01-30T12:05:07;11.50;99.90
23289;DHT22;11813;50.834;4.280;2024-01-30T12:07:33;11.50;99.90
23289;DHT22;11813;50.834;4.280;2024-01-30T12:09:59;11.50;99.90
23289;DHT22;11813;50.834;4.280;2024-01-30T12:12:26;11.80;99.90
23289;DHT22;11813;50.834;4.280;2024-01-30T12:14:52;12.10;99.90
23289;DHT22;11813;50.834;4.280;2024-01-30T12:17:32;12.20;99.90
23289;DHT22;11813;50.834;4.280;2024-01-30T12:20:15;12.30;99.90
23289;DHT22;11813;50.834;4.280;2024-01-30T12:22:43;12.20;99.90
23289;DHT22;11813;50.834;4.280;2024-01-30T12:25:13;12.20;99.90
23289;DHT22;11813;50.834;4.280;2024-01-30T12:27:40;12.10;99.90
23289;DHT22;11813;50.834;4.280;2024-01-30T12:32:36;12.10;99.90
23289;DHT22;11813;50.834;4.280;2024-01-30T12:35:03;12.30;99.90
23289;DHT22;11813;50.834;4.280;2024-01-30T12:37:30;12.50;99.90
23289;DHT22;11813;50.834;4.280;2024-01-30T12:39:56;12.60;99.90
23289;DHT22;11813;50.834;4.280;2024-01-30T12:42:22;12.70;99.90
23289;DHT22;11813;50.834;4.280;2024-01-30T12:44:48;12.70;99.90
23289;DHT22;11813;50.834;4.280;2024-01-30T12:47:14;12.60;99.90
23289;DHT22;11813;50.834;4.280;2024-01-30T12:49:42;12.80;99.90
23289;DHT22;11813;50.834;4.280;2024-01-30T12:52:09;13.30;99.90
23289;DHT22;11813;50.834;4.280;2024-01-30T12:54:35;13.50;99.90
23289;DHT22;11813;50.834;4.280;2024-01-30T12:57:01;13.60;99.90
23289;DHT22;11813;50.834;4.280;2024-01-30T12:59:26;13.70;99.90
23289;DHT22;11813;50.834;4.280;2024-01-30T13:01:52;14.00;99.90
23289;DHT22;11813;50.834;4.280;2024-01-30T13:04:18;14.40;99.90
23289;DHT22;11813;50.834;4.280;2024-01-30T13:06:43;14.10;99.90
23289;DHT22;11813;50.834;4.280;2024-01-30T13:09:09;14.00;99.90
23289;DHT22;11813;50.834;4.280;2024-01-30T13:11:34;13.80;99.90
23289;DHT22;11813;50.834;4.280;2024-01-30T13:14:01;13.40;99.90
23289;DHT22;11813;50.834;4.280;2024-01-30T13:16:26;13.00;99.90
23289;DHT22;11813;50.834;4.280;2024-01-30T13:18:52;12.90;99.90
23289;DHT22;11813;50.834;4.280;2024-01-30T13:21:19;12.70;99.90
23289;DHT22;11813;50.834;4.280;2024-01-30T13:23:45;12.20;99.90
23289;DHT22;11813;50.834;4.280;2024-01-30T13:26:11;11.80;99.90
23289;DHT22;11813;50.834;4.280;2024-01-30T13:28:36;11.70;99.90
23289;DHT22;11813;50.834;4.280;2024-01-30T13:31:02;11.50;99.90
23289;DHT22;11813;50.834;4.280;2024-01-30T13:33:28;11.50;99.90
23289;DHT22;11813;50.834;4.280;2024-01-30T13:35:54;11.60;99.90
23289;DHT22;11813;50.834;4.280;2024-01-30T13:38:19;11.50;99.90
23289;DHT22;11813;50.834;4.280;2024-01-30T13:40:45;11.50;99.90
23289;DHT22;11813;50.834;4.280;2024-01-30T13:43:11;11.50;99.90
23289;DHT22;11813;50.834;4.280;2024-01-30T13:45:37;11.50;99.90
23289;DHT22;11813;50.834;4.280;2024-01-30T13:48:03;11.50;99.90
23289;DHT22;11813;50.834;4.280;2024-01-30T13:50:28;11.50;99.90
23289;DHT22;11813;50.834;4.280;2024-01-30T13:52:54;11.40;99.90
23289;DHT22;11813;50.834;4.280;2024-01-30T13:55:20;11.30;99.90
23289;DHT22;11813;50.834;4.280;2024-01-30T13:57:46;11.30;99.90
23289;DHT22;11813;50.834;4.280;2024-01-30T14:00:12;11.20;99.90
23289;DHT22;11813;50.834;4.280;2024-01-30T14:02:41;11.10;99.90
23289;DHT22;11813;50.834;4.280;2024-01-30T14:05:07;11.10;99.90
23289;DHT22;11813;50.834;4.280;2024-01-30T14:07:33;11.10;99.90
23289;DHT22;11813;50.834;4.280;2024-01-30T14:09:59;10.90;99.90
23289;DHT22;11813;50.834;4.280;2024-01-30T14:12:24;10.90;99.90
23289;DHT22;11813;50.834;4.280;2024-01-30T14:14:50;10.90;99.90
23289;DHT22;11813;50.834;4.280;2024-01-30T14:17:16;10.90;99.90
23289;DHT22;11813;50.834;4.280;2024-01-30T14:19:42;10.90;99.90
23289;DHT22;11813;50.834;4.280;2024-01-30T14:22:07;10.90;99.90
23289;DHT22;11813;50.834;4.280;2024-01-30T14:24:33;10.90;99.90
23289;DHT22;11813;50.834;4.280;2024-01-30T14:26:59;10.80;99.90
23289;DHT22;11813;50.834;4.280;2024-01-30T14:29:25;10.70;99.90
23289;DHT22;11813;50.834;4.280;2024-01-30T14:31:51;10.70;99.90
23289;DHT22;11813;50.834;4.280;2024-01-30T14:34:17;10.60;99.90
23289;DHT22;11813;50.834;4.280;2024-01-30T14:36:43;10.70;99.90
23289;DHT22;11813;50.834;4.280;2024-01-30T14:39:09;10.70;99.90
23289;DHT22;11813;50.834;4.280;2024-01-30T14:41:35;10.60;99.90
23289;DHT22;11813;50.834;4.280;2024-01-30T14:44:00;10.50;99.90
23289;DHT22;11813;50.834;4.280;2024-01-30T14:46:26;10.50;99.90
23289;DHT22;11813;50.834;4.280;2024-01-30T14:48:52;10.50;99.90
23289;DHT22;11813;50.834;4.280;2024-01-30T14:51:18;10.50;99.90
23289;DHT22;11813;50.834;4.280;2024-01-30T14:53:43;10.40;99.90
23289;DHT22;11813;50.834;4.280;2024-01-30T14:56:10;10.40;99.90
23289;DHT22;11813;50.834;4.280;2024-01-30T14:58:36;10.40;99.90
23289;DHT22;11813;50.834;4.280;2024-01-30T15:01:02;10.50;99.90
23289;DHT22;11813;50.834;4.280;2024-01-30T15:03:28;10.50;99.90
23289;DHT22;11813;50.834;4.280;2024-01-30T15:05:54;10.50;99.90
23289;DHT22;11813;50.834;4.280;2024-01-30T15:08:21;10.40;99.90
23289;DHT22;11813;50.834;4.280;2024-01-30T15:10:46;10.30;99.90
23289;DHT22;11813;50.834;4.280;2024-01-30T15:13:12;10.30;99.90
23289;DHT22;11813;50.834;4.280;2024-01-30T15:15:38;10.40;99.90
23289;DHT22;11813;50.834;4.280;2024-01-30T15:18:04;10.30;99.90
23289;DHT22;11813;50.834;4.280;2024-01-30T15:20:29;10.30;99.90
23289;DHT22;11813;50.834;4.280;2024-01-30T15:22:57;10.30;99.90
23289;DHT22;11813;50.834;4.280;2024-01-30T15:25:22;10.30;99.90
23289;DHT22;11813;50.834;4.280;2024-01-30T15:27:48;10.20;99.90
23289;DHT22;11813;50.834;4.280;2024-01-30T15:30:14;10.20;99.90
23289;DHT22;11813;50.834;4.280;2024-01-30T15:32:39;10.10;99.90